createdAt,value
2018-03-25T00:01:01.917Z,1.90
2018-03-25T00:03:31.113Z,1.90
2018-03-25T00:06:00.315Z,1.90
2018-03-25T00:08:29.455Z,1.90
2018-03-25T00:10:58.481Z,1.90
2018-03-25T00:13:27.501Z,1.90
2018-03-25T00:15:56.557Z,1.90
2018-03-25T00:18:26.323Z,1.80
2018-03-25T00:20:55.338Z,1.70
2018-03-25T00:23:25.200Z,1.90
2018-03-25T00:25:54.247Z,1.80
2018-03-25T00:28:23.252Z,1.80
2018-03-25T00:30:53.079Z,1.70
2018-03-25T00:33:22.129Z,1.70
2018-03-25T00:35:51.157Z,1.70
2018-03-25T00:38:20.968Z,1.70
2018-03-25T00:40:50.742Z,1.60
2018-03-25T00:43:19.907Z,1.60
2018-03-25T00:45:48.908Z,1.60
2018-03-25T00:48:17.943Z,1.60
2018-03-25T00:50:46.980Z,1.70
2018-03-25T00:53:15.994Z,1.70
2018-03-25T00:55:45.033Z,1.60
2018-03-25T00:58:15.760Z,1.60
2018-03-25T01:00:44.777Z,1.60
2018-03-25T01:03:13.860Z,1.60
2018-03-25T01:05:42.956Z,1.60
2018-03-25T01:08:12.131Z,1.60
2018-03-25T01:10:41.941Z,1.50
2018-03-25T01:13:12.806Z,1.40
2018-03-25T01:15:59.991Z,1.30
2018-03-25T01:18:29.280Z,1.50
2018-03-25T01:21:00.344Z,1.60
2018-03-25T01:23:30.031Z,1.50
2018-03-25T01:26:00.480Z,1.60
2018-03-25T01:28:31.346Z,1.20
2018-03-25T01:31:01.113Z,1.20
2018-03-25T01:33:31.070Z,1.20
2018-03-25T01:36:00.139Z,1.10
2018-03-25T01:38:29.163Z,1.30
2018-03-25T01:40:58.438Z,1.30
2018-03-25T01:43:27.946Z,1.30
2018-03-25T01:45:56.975Z,1.30
2018-03-25T01:48:26.024Z,1.30
2018-03-25T01:50:55.055Z,1.40
2018-03-25T01:53:24.133Z,1.40
2018-03-25T01:55:53.192Z,1.50
2018-03-25T01:58:22.285Z,1.40
2018-03-25T02:00:52.107Z,1.10
2018-03-25T02:03:21.108Z,1.00
2018-03-25T02:05:50.191Z,1.20
2018-03-25T02:08:20.721Z,1.10
2018-03-25T02:10:49.912Z,1.10
2018-03-25T02:13:19.691Z,1.30
2018-03-25T02:15:48.918Z,1.20
2018-03-25T02:18:18.718Z,1.10
2018-03-25T02:20:47.789Z,1.10
2018-03-25T02:23:16.891Z,1.10
2018-03-25T02:25:45.925Z,0.90
2018-03-25T02:28:14.973Z,1.10
2018-03-25T02:30:43.994Z,1.10
2018-03-25T02:33:13.800Z,1.10
2018-03-25T02:35:43.601Z,1.10
2018-03-25T02:38:12.632Z,1.00
2018-03-25T02:40:41.642Z,0.90
2018-03-25T02:43:10.722Z,0.80
2018-03-25T02:45:39.755Z,0.90
2018-03-25T02:48:08.789Z,1.00
2018-03-25T02:50:37.900Z,1.10
2018-03-25T02:53:07.043Z,1.00
2018-03-25T02:55:36.412Z,1.00
2018-03-25T02:58:05.598Z,1.10
2018-03-25T03:00:34.653Z,1.00
2018-03-25T03:03:04.435Z,1.00
2018-03-25T03:05:33.471Z,1.00
2018-03-25T03:08:02.478Z,0.80
2018-03-25T03:10:31.538Z,0.90
2018-03-25T03:13:00.556Z,0.80
2018-03-25T03:15:29.571Z,0.70
2018-03-25T03:17:58.609Z,0.80
2018-03-25T03:20:27.623Z,0.90
2018-03-25T03:22:56.676Z,0.90
2018-03-25T03:25:25.695Z,1.00
2018-03-25T03:27:54.711Z,0.90
2018-03-25T03:30:23.755Z,0.80
2018-03-25T03:32:52.815Z,0.80
2018-03-25T03:35:21.822Z,0.80
2018-03-25T03:37:50.876Z,0.90
2018-03-25T03:40:19.889Z,0.90
2018-03-25T03:42:48.946Z,0.80
2018-03-25T03:45:18.739Z,0.80
2018-03-25T03:47:47.754Z,0.80
2018-03-25T03:50:16.817Z,0.70
2018-03-25T03:52:45.849Z,0.60
2018-03-25T03:55:14.869Z,0.50
2018-03-25T03:57:43.921Z,0.60
2018-03-25T04:00:13.722Z,0.70
2018-03-25T04:02:43.522Z,0.70
2018-03-25T04:05:12.589Z,0.60
2018-03-25T04:07:41.595Z,0.60
2018-03-25T04:10:10.672Z,0.70
2018-03-25T04:12:39.696Z,0.80
2018-03-25T04:15:08.713Z,0.70
2018-03-25T04:17:37.752Z,0.60
2018-03-25T04:20:06.804Z,0.70
2018-03-25T04:22:35.863Z,0.60
2018-03-25T04:25:04.883Z,0.60
2018-03-25T04:27:33.979Z,0.60
2018-03-25T04:30:02.999Z,0.70
2018-03-25T04:32:32.069Z,0.60
2018-03-25T04:35:01.144Z,0.60
2018-03-25T04:37:30.194Z,0.50
2018-03-25T04:39:59.246Z,0.50
2018-03-25T04:42:28.280Z,0.40
2018-03-25T04:44:57.342Z,0.50
2018-03-25T04:47:27.726Z,0.40
2018-03-25T04:49:57.568Z,0.40
2018-03-25T04:52:26.625Z,0.30
2018-03-25T04:54:55.674Z,0.20
2018-03-25T04:57:24.722Z,0.20
2018-03-25T04:59:54.606Z,0.30
2018-03-25T05:02:23.634Z,0.20
2018-03-25T05:04:52.812Z,0.30
2018-03-25T05:07:22.628Z,0.10
2018-03-25T05:09:52.473Z,0.00
2018-03-25T05:12:21.505Z,0.00
2018-03-25T05:14:50.540Z,0.10
2018-03-25T05:17:19.597Z,0.20
2018-03-25T05:19:48.636Z,0.10
2018-03-25T05:22:17.670Z,0.20
2018-03-25T05:24:46.850Z,0.30
2018-03-25T05:27:15.861Z,0.20
2018-03-25T05:29:44.907Z,0.20
2018-03-25T05:32:13.961Z,0.30
2018-03-25T05:34:42.984Z,0.30
2018-03-25T05:37:12.806Z,0.30
2018-03-25T05:39:41.836Z,0.30
2018-03-25T05:42:10.890Z,0.30
2018-03-25T05:44:39.908Z,0.30
2018-03-25T05:47:08.918Z,0.40
2018-03-25T05:49:38.000Z,0.40
2018-03-25T05:52:07.010Z,0.40
2018-03-25T05:54:36.030Z,0.50
2018-03-25T05:57:05.845Z,0.40
2018-03-25T05:59:35.636Z,0.50
2018-03-25T06:02:04.687Z,0.40
2018-03-25T06:04:33.693Z,0.60
2018-03-25T06:07:02.744Z,0.70
2018-03-25T06:09:31.776Z,0.70
2018-03-25T06:12:00.829Z,0.70
2018-03-25T06:14:29.845Z,0.80
2018-03-25T06:16:58.909Z,0.70
2018-03-25T06:19:27.956Z,0.70
2018-03-25T06:21:56.989Z,0.70
2018-03-25T06:24:26.031Z,0.90
2018-03-25T06:26:55.068Z,1.00
2018-03-25T06:29:24.943Z,1.30
2018-03-25T06:31:53.989Z,1.20
2018-03-25T06:34:23.769Z,1.60
2018-03-25T06:36:52.858Z,1.60
2018-03-25T06:39:21.974Z,1.80
2018-03-25T06:41:51.775Z,2.10
2018-03-25T06:44:21.150Z,2.10
2018-03-25T06:46:50.165Z,2.20
2018-03-25T06:49:19.203Z,2.40
2018-03-25T06:51:48.263Z,2.50
2018-03-25T06:54:17.307Z,2.40
2018-03-25T06:56:46.341Z,2.60
2018-03-25T06:59:15.449Z,2.80
2018-03-25T07:01:45.252Z,3.20
2018-03-25T07:04:14.304Z,3.10
2018-03-25T07:06:43.332Z,3.40
2018-03-25T07:09:12.395Z,3.60
2018-03-25T07:11:41.409Z,3.80
2018-03-25T07:14:10.469Z,4.10
2018-03-25T07:16:39.512Z,4.40
2018-03-25T07:19:08.539Z,4.80
2018-03-25T07:21:37.612Z,5.20
2018-03-25T07:24:07.399Z,5.90
2018-03-25T07:26:36.455Z,5.90
2018-03-25T07:29:05.457Z,6.30
2018-03-25T07:31:34.516Z,6.70
2018-03-25T07:34:04.296Z,7.40
2018-03-25T07:36:33.354Z,7.30
2018-03-25T07:39:02.373Z,7.80
2018-03-25T07:41:31.452Z,8.10
2018-03-25T07:44:00.475Z,8.40
2018-03-25T07:46:29.512Z,8.80
2018-03-25T07:48:58.586Z,9.20
2018-03-25T07:51:27.659Z,9.50
2018-03-25T07:53:58.349Z,10.00
2018-03-25T07:56:27.406Z,9.90
2018-03-25T07:58:56.466Z,10.20
2018-03-25T08:01:25.507Z,10.60
2018-03-25T08:03:54.654Z,11.00
2018-03-25T08:06:23.649Z,11.10
2018-03-25T08:08:52.689Z,11.30
2018-03-25T08:11:21.751Z,11.60
2018-03-25T08:13:51.570Z,12.20
2018-03-25T08:16:20.652Z,12.20
2018-03-25T08:18:49.692Z,12.50
2018-03-25T08:21:18.810Z,12.60
2018-03-25T08:23:47.827Z,12.90
2018-03-25T08:26:16.877Z,12.80
2018-03-25T08:28:45.959Z,12.70
2018-03-25T08:31:15.014Z,12.60
2018-03-25T08:33:44.860Z,12.80
2018-03-25T08:36:13.949Z,12.70
2018-03-25T08:38:42.982Z,12.60
2018-03-25T08:41:12.059Z,13.20
2018-03-25T08:43:41.137Z,13.80
2018-03-25T08:46:10.182Z,14.00
2018-03-25T08:48:39.201Z,14.20
2018-03-25T08:51:09.051Z,14.90
2018-03-25T08:53:38.073Z,14.80
2018-03-25T08:56:07.201Z,15.00
2018-03-25T08:58:37.039Z,16.00
2018-03-25T09:01:06.068Z,16.00
2018-03-25T09:03:35.134Z,16.50
2018-03-25T09:06:04.168Z,16.50
2018-03-25T09:08:33.249Z,16.60
2018-03-25T09:11:02.286Z,16.90
2018-03-25T09:13:31.343Z,17.20
2018-03-25T09:16:00.404Z,17.40
2018-03-25T09:18:29.460Z,17.70
2018-03-25T09:20:58.501Z,17.80
2018-03-25T09:23:27.562Z,18.30
2018-03-25T09:25:57.369Z,18.30
2018-03-25T09:28:26.475Z,18.20
2018-03-25T09:30:56.062Z,18.70
2018-03-25T09:33:25.197Z,19.40
2018-03-25T09:35:54.511Z,20.30
2018-03-25T09:38:23.873Z,20.30
2018-03-25T09:40:52.917Z,20.60
2018-03-25T09:43:22.150Z,20.20
2018-03-25T09:45:53.056Z,20.80
2018-03-25T09:48:22.142Z,20.80
2018-03-25T09:50:51.392Z,20.90
2018-03-25T09:53:20.430Z,21.20
2018-03-25T09:55:49.891Z,21.30
2018-03-25T09:58:19.165Z,21.30
2018-03-25T10:00:50.348Z,21.40
2018-03-25T10:03:26.191Z,21.70
2018-03-25T10:05:57.601Z,22.60
2018-03-25T10:08:28.749Z,22.50
2018-03-25T10:10:58.159Z,22.00
2018-03-25T10:13:27.528Z,21.00
2018-03-25T10:15:56.634Z,21.00
2018-03-25T10:18:26.961Z,21.30
2018-03-25T10:20:56.036Z,21.50
2018-03-25T10:23:25.472Z,21.90
2018-03-25T10:25:54.544Z,22.70
2018-03-25T10:28:23.625Z,23.60
2018-03-25T10:30:52.654Z,24.00
2018-03-25T10:33:21.808Z,24.00
2018-03-25T10:35:50.845Z,23.90
2018-03-25T10:38:20.307Z,23.40
2018-03-25T10:40:50.211Z,24.20
2018-03-25T10:43:19.397Z,24.10
2018-03-25T10:45:48.434Z,25.00
2018-03-25T10:48:17.493Z,25.80
2018-03-25T10:50:47.319Z,26.90
2018-03-25T10:53:16.374Z,26.80
2018-03-25T10:55:45.433Z,27.30
2018-03-25T10:58:14.477Z,27.80
2018-03-25T11:00:43.540Z,28.00
2018-03-25T11:03:12.566Z,27.90
2018-03-25T11:05:41.656Z,27.80
2018-03-25T11:08:10.681Z,27.10
2018-03-25T11:10:39.731Z,26.70
2018-03-25T11:13:08.769Z,26.60
2018-03-25T11:15:37.801Z,26.70
2018-03-25T11:18:06.912Z,26.90
2018-03-25T11:20:35.959Z,27.10
2018-03-25T11:23:04.996Z,27.30
2018-03-25T11:25:34.144Z,26.20
2018-03-25T11:28:03.268Z,25.40
2018-03-25T11:30:32.334Z,24.70
2018-03-25T11:33:02.166Z,22.90
2018-03-25T11:35:31.185Z,22.80
2018-03-25T11:38:00.261Z,22.40
2018-03-25T11:40:29.291Z,22.10
2018-03-25T11:42:58.353Z,22.00
2018-03-25T11:45:27.376Z,22.60
2018-03-25T11:47:56.555Z,24.10
2018-03-25T11:50:25.606Z,25.00
2018-03-25T11:52:54.642Z,25.00
2018-03-25T11:55:23.698Z,24.50
2018-03-25T11:57:52.765Z,23.30
2018-03-25T12:00:21.846Z,22.30
2018-03-25T12:02:50.921Z,21.30
2018-03-25T12:05:19.954Z,21.30
2018-03-25T12:07:49.126Z,22.30
2018-03-25T12:10:18.156Z,23.40
2018-03-25T12:12:47.276Z,23.40
2018-03-25T12:15:16.386Z,23.20
2018-03-25T12:17:45.574Z,23.60
2018-03-25T12:20:15.222Z,24.30
2018-03-25T12:22:44.344Z,25.70
2018-03-25T12:25:14.171Z,27.10
2018-03-25T12:27:43.998Z,30.30
2018-03-25T12:30:13.033Z,30.10
2018-03-25T12:32:42.809Z,30.70
2018-03-25T12:35:11.835Z,30.00
2018-03-25T12:37:41.576Z,30.00
2018-03-25T12:40:10.646Z,30.30
2018-03-25T12:42:39.678Z,31.00
2018-03-25T12:45:08.764Z,31.50
2018-03-25T12:47:38.405Z,30.20
2018-03-25T12:50:11.537Z,29.70
2018-03-25T12:52:52.122Z,28.20
2018-03-25T12:55:23.269Z,26.80
2018-03-25T12:57:53.044Z,25.10
2018-03-25T13:00:22.105Z,23.50
2018-03-25T13:02:51.169Z,22.70
2018-03-25T13:05:20.226Z,21.60
2018-03-25T13:07:49.432Z,21.40
2018-03-25T13:10:18.491Z,21.00
2018-03-25T13:15:13.728Z,20.10
2018-03-25T13:17:44.166Z,20.10
2018-03-25T13:20:13.252Z,19.90
2018-03-25T13:22:42.283Z,19.60
2018-03-25T13:25:11.334Z,19.60
2018-03-25T13:27:40.361Z,19.60
2018-03-25T13:30:09.514Z,19.60
2018-03-25T13:32:38.575Z,19.70
2018-03-25T13:35:07.707Z,19.50
2018-03-25T13:37:36.725Z,19.40
2018-03-25T13:40:05.785Z,19.40
2018-03-25T13:42:34.806Z,19.60
2018-03-25T13:45:03.881Z,19.60
2018-03-25T13:47:32.913Z,19.60
2018-03-25T13:50:01.952Z,19.60
2018-03-25T13:52:32.460Z,19.60
2018-03-25T13:55:01.675Z,19.80
2018-03-25T13:57:30.739Z,19.50
2018-03-25T13:59:59.836Z,19.40
2018-03-25T14:02:30.492Z,19.40
2018-03-25T14:05:00.107Z,19.50
2018-03-25T14:07:29.897Z,19.70
2018-03-25T14:09:59.196Z,19.60
2018-03-25T14:12:28.606Z,19.50
2018-03-25T14:14:57.675Z,19.40
2018-03-25T14:17:26.712Z,19.60
2018-03-25T14:19:56.631Z,23.40
2018-03-25T14:22:27.011Z,23.30
2018-03-25T14:24:56.290Z,25.50
2018-03-25T14:27:25.336Z,26.90
2018-03-25T14:29:54.447Z,27.40
2018-03-25T14:32:23.497Z,28.30
2018-03-25T14:34:52.575Z,29.30
2018-03-25T14:37:21.599Z,30.00
2018-03-25T14:39:50.734Z,30.40
2018-03-25T14:42:20.013Z,31.00
2018-03-25T14:44:49.900Z,31.10
2018-03-25T14:47:18.956Z,30.90
2018-03-25T14:49:48.207Z,30.50
2018-03-25T14:52:23.222Z,29.90
2018-03-25T14:54:53.161Z,29.20
2018-03-25T14:57:24.397Z,29.20
2018-03-25T14:59:54.381Z,29.00
2018-03-25T15:02:27.248Z,28.60
2018-03-25T15:04:57.457Z,28.50
2018-03-25T15:07:27.522Z,28.50
2018-03-25T15:09:57.019Z,28.50
2018-03-25T15:12:26.298Z,28.70
2018-03-25T15:14:56.450Z,29.00
2018-03-25T15:17:26.298Z,28.80
2018-03-25T15:19:55.442Z,28.70
2018-03-25T15:22:24.504Z,28.90
2018-03-25T15:24:54.324Z,28.90
2018-03-25T15:27:28.503Z,28.70
2018-03-25T15:30:02.608Z,28.30
2018-03-25T15:32:42.889Z,28.20
2018-03-25T15:35:28.727Z,27.90
2018-03-25T15:37:57.840Z,27.80
2018-03-25T15:40:27.020Z,27.10
2018-03-25T15:42:56.060Z,26.70
2018-03-25T15:45:25.130Z,25.60
2018-03-25T15:47:54.211Z,24.20
2018-03-25T15:50:25.255Z,23.40
2018-03-25T15:52:54.309Z,22.30
2018-03-25T15:55:23.365Z,21.80
2018-03-25T15:57:53.317Z,21.60
2018-03-25T16:00:22.374Z,21.10
2018-03-25T16:02:51.423Z,21.10
2018-03-25T16:05:20.596Z,20.90
2018-03-25T16:07:49.642Z,21.00
2018-03-25T16:10:18.674Z,20.90
2018-03-25T16:12:47.757Z,20.80
2018-03-25T16:15:17.689Z,20.60
2018-03-25T16:17:46.716Z,20.50
2018-03-25T16:20:15.811Z,20.20
2018-03-25T16:22:45.092Z,19.70
2018-03-25T16:25:14.276Z,19.40
2018-03-25T16:27:43.686Z,18.80
2018-03-25T16:30:12.845Z,18.20
2018-03-25T16:32:41.869Z,17.80
2018-03-25T16:35:10.927Z,17.40
2018-03-25T16:37:39.958Z,17.10
2018-03-25T16:40:09.024Z,16.50
2018-03-25T16:42:38.140Z,16.00
2018-03-25T16:45:07.204Z,15.90
2018-03-25T16:47:36.239Z,15.80
2018-03-25T16:50:05.328Z,15.60
2018-03-25T16:52:34.473Z,15.30
2018-03-25T16:55:03.525Z,15.20
2018-03-25T16:57:32.561Z,15.10
2018-03-25T17:00:01.664Z,15.10
2018-03-25T17:02:32.927Z,15.10
2018-03-25T17:05:02.125Z,15.00
2018-03-25T17:07:31.164Z,14.80
2018-03-25T17:10:00.956Z,14.60
2018-03-25T17:12:30.130Z,14.50
2018-03-25T17:14:59.180Z,14.50
2018-03-25T17:17:28.201Z,14.40
2018-03-25T17:19:57.266Z,14.40
2018-03-25T17:22:27.071Z,14.40
2018-03-25T17:24:56.909Z,14.20
2018-03-25T17:27:25.952Z,14.10
2018-03-25T17:29:54.987Z,14.10
2018-03-25T17:32:24.067Z,13.60
2018-03-25T17:34:53.098Z,13.10
2018-03-25T17:37:22.273Z,12.60
2018-03-25T17:39:51.309Z,12.30
2018-03-25T17:42:20.403Z,12.10
2018-03-25T17:44:49.431Z,11.90
2018-03-25T17:47:19.370Z,11.60
2018-03-25T17:49:48.462Z,11.50
2018-03-25T17:52:18.536Z,11.40
2018-03-25T17:54:48.124Z,11.40
2018-03-25T17:57:18.563Z,11.30
2018-03-25T17:59:47.761Z,11.20
2018-03-25T18:02:16.797Z,11.20
2018-03-25T18:04:46.674Z,10.90
2018-03-25T18:07:15.737Z,10.80
2018-03-25T18:09:44.901Z,10.70
2018-03-25T18:12:13.941Z,10.60
2018-03-25T18:14:43.006Z,10.40
2018-03-25T18:17:33.463Z,10.50
2018-03-25T18:19:41.130Z,10.50
2018-03-25T18:22:10.217Z,10.20
2018-03-25T18:24:39.309Z,10.00
2018-03-25T18:27:08.361Z,9.90
2018-03-25T18:29:37.378Z,9.60
2018-03-25T18:32:06.434Z,9.60
2018-03-25T18:34:36.262Z,9.50
2018-03-25T18:37:05.299Z,9.40
2018-03-25T18:39:34.350Z,9.40
2018-03-25T18:42:03.381Z,9.30
2018-03-25T18:44:32.477Z,9.10
2018-03-25T18:47:01.608Z,8.70
2018-03-25T18:49:31.381Z,8.30
2018-03-25T18:52:00.427Z,8.20
2018-03-25T18:54:29.443Z,8.20
2018-03-25T18:56:58.510Z,8.00
2018-03-25T18:59:27.585Z,7.90
2018-03-25T19:01:57.445Z,7.70
2018-03-25T19:04:26.472Z,7.70
2018-03-25T19:06:55.545Z,7.60
2018-03-25T19:09:24.550Z,7.40
2018-03-25T19:11:53.570Z,7.20
2018-03-25T19:14:23.406Z,6.80
2018-03-25T19:16:53.190Z,6.70
2018-03-25T19:19:22.205Z,6.60
2018-03-25T19:21:52.114Z,6.70
2018-03-25T19:24:21.907Z,6.60
2018-03-25T19:26:52.016Z,6.60
2018-03-25T19:29:21.632Z,6.80
2018-03-25T19:31:52.495Z,6.80
2018-03-25T19:34:24.171Z,6.60
2018-03-25T19:36:54.225Z,6.40
2018-03-25T19:39:25.459Z,6.20
2018-03-25T19:41:56.605Z,6.00
2018-03-25T19:44:25.655Z,5.90
2018-03-25T19:46:54.692Z,5.80
2018-03-25T19:49:23.745Z,5.80
2018-03-25T19:51:52.815Z,5.70
2018-03-25T19:54:21.883Z,5.50
2018-03-25T19:56:54.668Z,5.40
2018-03-25T19:59:23.712Z,5.40
2018-03-25T20:01:53.290Z,5.20
2018-03-25T20:04:22.410Z,5.20
2018-03-25T20:06:52.374Z,5.10
2018-03-25T20:09:21.657Z,5.00
2018-03-25T20:11:50.729Z,5.10
2018-03-25T20:14:19.864Z,4.90
2018-03-25T20:16:48.889Z,4.80
2018-03-25T20:19:17.978Z,4.70
2018-03-25T20:21:47.124Z,4.60
2018-03-25T20:24:17.021Z,4.60
2018-03-25T20:26:46.699Z,4.60
2018-03-25T20:29:15.793Z,4.50
2018-03-25T20:31:44.894Z,4.60
2018-03-25T20:34:14.150Z,4.60
2018-03-25T20:36:44.125Z,4.50
2018-03-25T20:39:13.192Z,4.50
2018-03-25T20:41:42.266Z,4.50
2018-03-25T20:44:11.349Z,4.40
2018-03-25T20:46:40.411Z,4.40
2018-03-25T20:49:09.544Z,4.40
2018-03-25T20:51:38.701Z,4.20
2018-03-25T20:54:07.808Z,4.10
2018-03-25T20:56:36.873Z,4.20
2018-03-25T20:59:05.998Z,4.10
2018-03-25T21:01:35.018Z,4.00
2018-03-25T21:04:04.403Z,3.90
2018-03-25T21:06:33.594Z,3.80
2018-03-25T21:09:02.724Z,3.70
2018-03-25T21:11:31.807Z,3.70
2018-03-25T21:14:01.036Z,3.60
2018-03-25T21:16:30.202Z,3.60
2018-03-25T21:19:00.024Z,3.70
2018-03-25T21:21:29.350Z,3.70
2018-03-25T21:23:58.857Z,3.70
2018-03-25T21:26:28.008Z,3.60
2018-03-25T21:28:57.214Z,3.60
2018-03-25T21:31:27.012Z,3.50
2018-03-25T21:33:58.483Z,3.50
2018-03-25T21:36:27.804Z,3.40
2018-03-25T21:38:56.902Z,3.40
2018-03-25T21:41:26.039Z,3.40
2018-03-25T21:43:55.236Z,3.50
2018-03-25T21:46:24.374Z,3.50
2018-03-25T21:48:53.462Z,3.30
2018-03-25T21:51:22.482Z,3.20
2018-03-25T21:53:51.703Z,3.20
2018-03-25T21:56:21.157Z,3.20
2018-03-25T21:58:50.326Z,3.20
2018-03-25T22:01:19.723Z,3.20
2018-03-25T22:03:48.875Z,3.20
2018-03-25T22:06:19.166Z,3.10
2018-03-25T22:08:48.302Z,3.20
2018-03-25T22:11:22.684Z,3.10
2018-03-25T22:13:52.550Z,3.00
2018-03-25T22:16:21.994Z,3.00
2018-03-25T22:18:59.687Z,3.00
2018-03-25T22:21:29.050Z,3.00
2018-03-25T22:23:58.227Z,2.90
2018-03-25T22:26:27.577Z,2.90
2018-03-25T22:28:56.690Z,2.90
2018-03-25T22:31:26.173Z,2.90
2018-03-25T22:33:55.454Z,2.90
2018-03-25T22:36:24.727Z,2.70
2018-03-25T22:38:53.809Z,2.70
2018-03-25T22:41:23.007Z,2.70
2018-03-25T22:43:52.232Z,2.50
2018-03-25T22:46:21.811Z,2.50
2018-03-25T22:48:51.340Z,2.60
2018-03-25T22:51:20.375Z,2.50
2018-03-25T22:53:49.393Z,2.40
2018-03-25T22:56:18.462Z,2.30
2018-03-25T22:58:47.518Z,2.30
2018-03-25T23:01:16.581Z,2.20
2018-03-25T23:03:45.700Z,2.30
2018-03-25T23:06:14.831Z,2.40
2018-03-25T23:08:44.043Z,2.30
2018-03-25T23:11:13.163Z,2.40
2018-03-25T23:13:43.106Z,2.50
2018-03-25T23:16:13.639Z,2.40
2018-03-25T23:18:42.840Z,2.60
2018-03-25T23:21:13.242Z,2.80
2018-03-25T23:23:42.781Z,2.70
2018-03-25T23:26:12.447Z,2.90
2018-03-25T23:28:42.924Z,3.10
2018-03-25T23:31:12.179Z,3.10
2018-03-25T23:33:41.450Z,3.10
2018-03-25T23:36:11.837Z,3.20
2018-03-25T23:38:40.847Z,3.10
2018-03-25T23:41:10.132Z,3.30
2018-03-25T23:43:39.417Z,3.30
2018-03-25T23:46:08.627Z,3.30
2018-03-25T23:48:37.643Z,3.30
2018-03-25T23:51:06.681Z,3.30
2018-03-25T23:53:35.844Z,3.20
2018-03-25T23:56:05.543Z,3.20
2018-03-25T23:58:34.680Z,3.30
